createdAt,value
2019-01-22T00:00:42.058Z,47.47
2019-01-22T00:03:10.399Z,44.50
2019-01-22T00:05:38.687Z,44.07
2019-01-22T00:08:06.954Z,40.43
2019-01-22T00:10:35.246Z,41.20
2019-01-22T00:13:03.522Z,54.10
2019-01-22T00:15:31.812Z,45.07
2019-01-22T00:18:00.077Z,44.03
2019-01-22T00:20:28.370Z,38.67
2019-01-22T00:23:02.663Z,47.07
2019-01-22T00:25:26.582Z,54.50
2019-01-22T00:27:55.060Z,49.23
2019-01-22T00:30:23.412Z,40.07
2019-01-22T00:32:51.757Z,40.07
2019-01-22T00:35:20.047Z,41.90
2019-01-22T00:37:48.328Z,43.60
2019-01-22T00:40:17.290Z,41.00
2019-01-22T00:42:45.862Z,49.20
2019-01-22T00:45:14.421Z,46.70
2019-01-22T00:47:42.757Z,50.47
2019-01-22T00:50:15.546Z,46.70
2019-01-22T00:52:43.817Z,43.40
2019-01-22T00:55:13.985Z,47.20
2019-01-22T00:57:42.255Z,48.60
2019-01-22T01:00:12.079Z,54.97
2019-01-22T01:02:40.354Z,42.43
2019-01-22T01:05:08.717Z,43.83
2019-01-22T01:07:36.994Z,40.57
2019-01-22T01:10:06.910Z,42.03
2019-01-22T01:12:35.206Z,39.30
2019-01-22T01:15:05.171Z,41.13
2019-01-22T01:17:33.436Z,41.53
2019-01-22T01:20:01.711Z,41.27
2019-01-22T01:22:30.001Z,49.73
2019-01-22T01:24:58.265Z,52.03
2019-01-22T01:27:26.629Z,48.90
2019-01-22T01:29:54.901Z,42.80
2019-01-22T01:32:23.193Z,47.57
2019-01-22T01:34:51.457Z,41.43
2019-01-22T01:37:19.749Z,44.27
2019-01-22T01:39:48.026Z,38.47
2019-01-22T01:42:16.314Z,51.20
2019-01-22T01:44:44.593Z,45.53
2019-01-22T01:47:12.886Z,43.30
2019-01-22T01:49:41.148Z,39.23
2019-01-22T01:52:09.459Z,38.67
2019-01-22T01:54:37.722Z,41.57
2019-01-22T01:57:06.018Z,40.60
2019-01-22T01:59:34.281Z,39.93
2019-01-22T02:02:02.578Z,44.33
2019-01-22T02:04:30.851Z,38.57
2019-01-22T02:06:59.145Z,37.57
2019-01-22T02:09:27.413Z,42.00
2019-01-22T02:11:55.702Z,40.30
2019-01-22T02:14:25.354Z,42.47
2019-01-22T02:17:01.129Z,41.97
2019-01-22T02:19:30.942Z,39.20
2019-01-22T02:22:03.439Z,40.93
2019-01-22T02:24:33.246Z,44.30
2019-01-22T02:27:03.078Z,41.30
2019-01-22T02:29:49.156Z,42.80
2019-01-22T02:32:18.977Z,40.77
2019-01-22T02:34:48.781Z,44.50
2019-01-22T02:37:18.613Z,39.63
2019-01-22T02:39:48.413Z,41.30
2019-01-22T02:42:18.330Z,44.60
2019-01-22T02:44:53.819Z,39.70
2019-01-22T02:47:23.619Z,38.70
2019-01-22T02:50:11.527Z,42.43
2019-01-22T02:52:44.405Z,39.50
2019-01-22T02:55:14.243Z,39.93
2019-01-22T02:57:46.723Z,38.87
2019-01-22T03:00:16.556Z,38.83
2019-01-22T03:02:55.335Z,44.50
2019-01-22T03:05:25.162Z,42.00
2019-01-22T03:07:57.938Z,38.90
2019-01-22T03:10:33.761Z,41.97
2019-01-22T03:13:06.799Z,46.40
2019-01-22T03:15:53.042Z,45.93
2019-01-22T03:18:28.754Z,42.90
2019-01-22T03:21:01.499Z,39.07
2019-01-22T03:23:46.562Z,34.30
2019-01-22T03:26:23.958Z,40.43
2019-01-22T03:28:53.778Z,40.27
2019-01-22T03:31:26.564Z,35.30
2019-01-22T03:33:56.362Z,38.77
2019-01-22T03:36:38.064Z,41.00
2019-01-22T03:39:16.941Z,36.60
2019-01-22T03:42:04.798Z,35.87
2019-01-22T03:44:34.605Z,38.60
2019-01-22T03:47:07.458Z,36.87
2019-01-22T03:49:37.278Z,36.47
2019-01-22T03:52:07.101Z,36.90
2019-01-22T03:54:36.920Z,37.23
2019-01-22T03:57:06.730Z,35.23
2019-01-22T03:59:35.022Z,32.83
2019-01-22T04:02:03.295Z,36.10
2019-01-22T04:04:31.593Z,35.50
2019-01-22T04:06:59.859Z,38.90
2019-01-22T04:09:29.022Z,35.80
2019-01-22T04:11:57.604Z,29.60
2019-01-22T04:14:25.967Z,35.60
2019-01-22T04:16:54.242Z,39.40
2019-01-22T04:19:22.538Z,37.20
2019-01-22T04:21:50.813Z,32.27
2019-01-22T04:24:23.445Z,35.10
2019-01-22T04:26:56.217Z,37.07
2019-01-22T04:29:28.949Z,36.90
2019-01-22T04:31:58.767Z,37.40
2019-01-22T04:34:28.598Z,36.10
2019-01-22T04:36:58.609Z,36.63
2019-01-22T04:39:31.442Z,31.23
2019-01-22T04:42:04.157Z,34.50
2019-01-22T04:44:45.797Z,36.33
2019-01-22T04:47:24.721Z,34.03
2019-01-22T04:50:10.813Z,34.13
2019-01-22T04:52:46.661Z,32.90
2019-01-22T04:55:19.394Z,34.60
2019-01-22T04:57:49.197Z,31.43
2019-01-22T05:00:31.058Z,33.10
2019-01-22T05:03:03.842Z,29.17
2019-01-22T05:05:45.369Z,34.87
2019-01-22T05:08:15.186Z,30.10
2019-01-22T05:10:45.021Z,33.67
2019-01-22T05:13:14.834Z,36.80
2019-01-22T05:15:44.661Z,35.17
2019-01-22T05:18:14.475Z,32.20
2019-01-22T05:20:56.166Z,33.30
2019-01-22T05:23:42.184Z,33.93
2019-01-22T05:26:17.730Z,30.43
2019-01-22T05:28:56.189Z,28.93
2019-01-22T05:31:37.870Z,31.10
2019-01-22T05:34:13.689Z,31.50
2019-01-22T05:36:52.416Z,31.73
2019-01-22T05:39:22.213Z,31.07
2019-01-22T05:41:52.050Z,31.63
2019-01-22T05:44:21.861Z,31.47
2019-01-22T05:47:08.210Z,30.60
2019-01-22T05:49:43.738Z,29.10
2019-01-22T05:52:16.497Z,26.77
2019-01-22T05:54:58.230Z,26.63
2019-01-22T05:57:27.756Z,26.57
2019-01-22T06:00:12.339Z,23.37
2019-01-22T06:02:42.173Z,30.10
2019-01-22T06:05:16.414Z,33.77
2019-01-22T06:07:46.247Z,31.27
2019-01-22T06:10:30.929Z,34.70
2019-01-22T06:13:00.764Z,33.77
2019-01-22T06:15:30.571Z,34.80
2019-01-22T06:18:09.326Z,31.57
2019-01-22T06:20:39.076Z,31.33
2019-01-22T06:23:11.566Z,27.67
2019-01-22T06:25:49.693Z,24.80
2019-01-22T06:28:35.603Z,25.07
2019-01-22T06:31:05.414Z,28.03
2019-01-22T06:33:35.242Z,29.40
2019-01-22T06:36:05.006Z,28.20
2019-01-22T06:38:40.758Z,26.27
2019-01-22T06:41:10.562Z,29.03
2019-01-22T06:43:40.393Z,29.40
2019-01-22T06:46:10.190Z,27.87
2019-01-22T06:48:42.738Z,28.10
2019-01-22T06:51:18.298Z,26.37
2019-01-22T06:53:48.030Z,25.20
2019-01-22T06:56:34.088Z,29.73
2019-01-22T06:59:03.894Z,29.47
2019-01-22T07:01:33.726Z,27.63
2019-01-22T07:04:15.498Z,25.97
2019-01-22T07:06:45.327Z,34.17
2019-01-22T07:09:15.130Z,27.60
2019-01-22T07:11:59.787Z,28.90
2019-01-22T07:14:32.250Z,31.87
2019-01-22T07:17:02.079Z,28.23
2019-01-22T07:19:46.885Z,27.73
2019-01-22T07:22:19.389Z,26.70
2019-01-22T07:24:52.194Z,27.50
2019-01-22T07:27:24.706Z,29.07
2019-01-22T07:29:54.518Z,33.30
2019-01-22T07:32:33.383Z,26.03
2019-01-22T07:35:03.186Z,24.97
2019-01-22T07:37:32.926Z,33.97
2019-01-22T07:40:02.757Z,30.97
2019-01-22T07:42:50.602Z,30.40
2019-01-22T07:45:20.362Z,30.00
2019-01-22T07:47:50.170Z,28.23
2019-01-22T07:50:25.715Z,28.83
2019-01-22T07:53:13.454Z,25.87
2019-01-22T07:55:43.285Z,31.70
2019-01-22T07:58:29.515Z,24.97
2019-01-22T08:01:23.643Z,30.53
2019-01-22T08:04:00.929Z,29.17
2019-01-22T08:06:35.091Z,24.40
2019-01-22T08:09:04.820Z,28.83
2019-01-22T08:11:43.686Z,28.53
2019-01-22T08:14:19.502Z,29.00
2019-01-22T08:16:49.266Z,29.43
2019-01-22T08:19:21.753Z,29.43
2019-01-22T08:21:51.578Z,34.10
2019-01-22T08:24:21.398Z,30.83
2019-01-22T08:26:51.140Z,33.37
2019-01-22T08:29:23.662Z,25.37
2019-01-22T08:31:59.170Z,32.40
2019-01-22T08:34:29.006Z,29.07
2019-01-22T08:36:58.809Z,33.40
2019-01-22T08:39:37.630Z,31.43
2019-01-22T08:42:07.439Z,32.20
2019-01-22T08:44:46.158Z,31.03
2019-01-22T08:47:21.616Z,32.30
2019-01-22T08:49:51.443Z,32.63
2019-01-22T08:52:29.945Z,30.30
2019-01-22T08:54:59.779Z,29.13
2019-01-22T08:57:41.478Z,30.07
2019-01-22T09:00:16.811Z,25.80
2019-01-22T09:02:45.456Z,31.10
2019-01-22T09:05:15.285Z,30.20
2019-01-22T09:07:50.841Z,30.60
2019-01-22T09:10:20.671Z,32.40
2019-01-22T09:12:50.405Z,34.07
2019-01-22T09:15:23.106Z,28.20
2019-01-22T09:18:00.014Z,31.53
2019-01-22T09:20:35.798Z,28.10
2019-01-22T09:23:14.309Z,34.73
2019-01-22T09:25:56.146Z,30.20
2019-01-22T09:28:34.946Z,32.00
2019-01-22T09:31:07.633Z,37.60
2019-01-22T09:33:46.439Z,39.87
2019-01-22T09:36:19.218Z,33.53
2019-01-22T09:38:47.490Z,32.90
2019-01-22T09:41:15.761Z,31.10
2019-01-22T09:43:44.045Z,26.00
2019-01-22T09:46:12.249Z,28.13
2019-01-22T09:48:40.539Z,28.20
2019-01-22T09:51:08.877Z,29.20
2019-01-22T09:53:37.093Z,25.43
2019-01-22T09:56:05.361Z,29.77
2019-01-22T09:58:33.659Z,27.80
2019-01-22T10:01:01.931Z,26.63
2019-01-22T10:03:30.324Z,33.97
2019-01-22T10:05:59.488Z,25.53
2019-01-22T10:08:27.759Z,31.00
2019-01-22T10:10:56.105Z,29.00
2019-01-22T10:13:24.389Z,28.70
2019-01-22T10:15:52.585Z,33.87
2019-01-22T10:18:20.806Z,28.53
2019-01-22T10:20:49.075Z,28.37
2019-01-22T10:23:17.369Z,24.77
2019-01-22T10:25:45.634Z,19.40
2019-01-22T10:28:13.922Z,19.60
2019-01-22T10:30:42.113Z,19.73
2019-01-22T10:33:10.413Z,17.00
2019-01-22T10:35:38.609Z,17.77
2019-01-22T10:38:06.913Z,22.80
2019-01-22T10:40:35.180Z,24.20
2019-01-22T10:43:09.205Z,17.80
2019-01-22T10:45:33.527Z,19.40
2019-01-22T10:48:01.829Z,22.73
2019-01-22T10:50:30.056Z,18.63
2019-01-22T10:52:58.338Z,22.63
2019-01-22T10:55:26.534Z,20.17
2019-01-22T10:57:54.829Z,21.60
2019-01-22T11:00:27.438Z,24.63
2019-01-22T11:02:55.659Z,23.73
2019-01-22T11:05:27.898Z,23.67
2019-01-22T11:07:56.108Z,23.40
2019-01-22T11:10:24.340Z,23.10
2019-01-22T11:12:52.612Z,22.00
2019-01-22T11:15:27.642Z,20.10
2019-01-22T11:17:50.824Z,19.17
2019-01-22T11:20:23.494Z,21.90
2019-01-22T11:22:51.714Z,23.97
2019-01-22T11:25:20.989Z,20.53
2019-01-22T11:27:49.362Z,23.60
2019-01-22T11:30:19.181Z,19.80
2019-01-22T11:32:47.445Z,21.90
2019-01-22T11:35:17.038Z,22.83
2019-01-22T11:37:45.229Z,23.70
2019-01-22T11:40:15.017Z,19.30
2019-01-22T11:42:43.290Z,20.53
2019-01-22T11:45:11.647Z,22.50
2019-01-22T11:47:39.916Z,23.00
2019-01-22T11:50:09.666Z,21.10
2019-01-22T11:52:37.857Z,23.27
2019-01-22T11:55:06.349Z,19.83
2019-01-22T11:57:34.615Z,21.03
2019-01-22T12:00:03.746Z,22.40
2019-01-22T12:02:32.339Z,24.17
2019-01-22T12:05:00.606Z,23.17
2019-01-22T12:07:28.802Z,23.10
2019-01-22T12:09:57.087Z,20.53
2019-01-22T12:12:25.287Z,19.97
2019-01-22T12:14:53.574Z,25.03
2019-01-22T12:17:21.841Z,26.30
2019-01-22T12:19:50.061Z,27.83
2019-01-22T12:22:18.249Z,23.37
2019-01-22T12:24:46.470Z,22.10
2019-01-22T12:27:15.701Z,24.23
2019-01-22T12:29:43.970Z,23.20
2019-01-22T12:32:12.246Z,24.67
2019-01-22T12:34:40.460Z,27.00
2019-01-22T12:37:08.725Z,25.43
2019-01-22T12:39:36.942Z,25.20
2019-01-22T12:42:05.144Z,32.90
2019-01-22T12:44:33.429Z,24.00
2019-01-22T12:47:01.618Z,28.10
2019-01-22T12:49:29.843Z,24.60
2019-01-22T12:51:58.110Z,24.43
2019-01-22T12:54:26.333Z,23.57
2019-01-22T12:56:54.594Z,22.77
2019-01-22T12:59:22.890Z,24.40
2019-01-22T13:01:51.164Z,22.33
2019-01-22T13:04:19.450Z,24.00
2019-01-22T13:06:47.642Z,22.37
2019-01-22T13:09:15.853Z,26.17
2019-01-22T13:11:45.685Z,25.90
2019-01-22T13:14:16.364Z,24.03
2019-01-22T13:16:43.810Z,25.13
2019-01-22T13:19:12.001Z,22.80
2019-01-22T13:21:40.214Z,25.20
2019-01-22T13:24:08.410Z,27.10
2019-01-22T13:26:36.765Z,23.27
2019-01-22T13:29:04.953Z,24.83
2019-01-22T13:31:33.179Z,24.60
2019-01-22T13:34:01.457Z,23.80
2019-01-22T13:36:29.741Z,23.20
2019-01-22T13:38:57.938Z,21.43
2019-01-22T13:41:26.226Z,23.03
2019-01-22T13:43:54.425Z,23.57
2019-01-22T13:46:22.646Z,31.00
2019-01-22T13:48:50.845Z,26.80
2019-01-22T13:51:19.126Z,27.97
2019-01-22T13:53:47.321Z,23.60
2019-01-22T13:56:18.703Z,26.37
2019-01-22T13:58:45.441Z,24.90
2019-01-22T14:01:13.729Z,26.30
2019-01-22T14:03:41.996Z,29.50
2019-01-22T14:06:10.221Z,26.83
2019-01-22T14:08:38.427Z,24.07
2019-01-22T14:11:06.715Z,27.93
2019-01-22T14:13:34.985Z,32.90
2019-01-22T14:16:03.278Z,25.57
2019-01-22T14:18:31.549Z,26.70
2019-01-22T14:20:59.847Z,23.83
2019-01-22T14:23:28.109Z,36.77
2019-01-22T14:25:57.401Z,28.20
2019-01-22T14:28:25.680Z,35.00
2019-01-22T14:30:54.082Z,28.80
2019-01-22T14:33:22.406Z,33.67
2019-01-22T14:35:50.682Z,32.40
2019-01-22T14:38:18.882Z,29.07
2019-01-22T14:40:47.961Z,30.77
2019-01-22T14:43:16.158Z,27.00
2019-01-22T14:45:44.682Z,31.10
2019-01-22T14:48:12.878Z,31.60
2019-01-22T14:50:44.655Z,27.30
2019-01-22T14:53:13.023Z,29.30
2019-01-22T14:55:41.314Z,32.80
2019-01-22T14:58:09.735Z,31.00
2019-01-22T15:00:39.205Z,28.03
2019-01-22T15:03:07.488Z,30.73
2019-01-22T15:05:37.294Z,28.90
2019-01-22T15:08:05.770Z,34.27
2019-01-22T15:10:34.222Z,32.57
2019-01-22T15:13:02.441Z,29.53
2019-01-22T15:15:30.643Z,32.00
2019-01-22T15:17:58.861Z,37.80
2019-01-22T15:20:27.298Z,33.47
2019-01-22T15:22:56.690Z,33.07
2019-01-22T15:25:24.887Z,35.33
2019-01-22T15:27:53.906Z,33.33
2019-01-22T15:30:23.883Z,33.70
2019-01-22T15:32:52.404Z,31.53
2019-01-22T15:35:20.742Z,34.97
2019-01-22T15:37:49.030Z,42.83
2019-01-22T15:40:18.849Z,35.20
2019-01-22T15:42:47.150Z,34.40
2019-01-22T15:45:15.491Z,41.60
2019-01-22T15:47:44.803Z,33.07
2019-01-22T15:50:14.437Z,33.73
2019-01-22T15:52:42.657Z,39.17
2019-01-22T15:55:12.718Z,38.73
2019-01-22T15:57:41.311Z,38.53
2019-01-22T16:00:11.118Z,37.67
2019-01-22T16:02:39.401Z,30.73
2019-01-22T16:05:09.608Z,38.07
2019-01-22T16:07:37.868Z,38.43
2019-01-22T16:10:08.398Z,33.10
2019-01-22T16:12:36.955Z,34.63
2019-01-22T16:15:07.097Z,34.43
2019-01-22T16:17:35.388Z,38.40
2019-01-22T16:20:05.133Z,34.93
2019-01-22T16:22:34.360Z,32.43
2019-01-22T16:25:02.638Z,35.93
2019-01-22T16:27:30.858Z,46.03
2019-01-22T16:29:59.067Z,34.50
2019-01-22T16:32:27.354Z,34.90
2019-01-22T16:34:55.618Z,34.93
2019-01-22T16:37:23.846Z,32.33
2019-01-22T16:39:52.450Z,33.80
2019-01-22T16:42:20.685Z,32.10
2019-01-22T16:44:49.763Z,42.67
2019-01-22T16:47:18.078Z,38.13
2019-01-22T16:49:46.278Z,37.90
2019-01-22T16:52:14.568Z,37.77
2019-01-22T16:54:42.766Z,32.37
2019-01-22T16:57:11.053Z,32.60
2019-01-22T16:59:39.249Z,34.43
2019-01-22T17:02:07.524Z,38.37
2019-01-22T17:04:35.823Z,35.83
2019-01-22T17:07:04.176Z,33.50
2019-01-22T17:09:32.466Z,35.37
2019-01-22T17:12:00.731Z,40.47
2019-01-22T17:14:29.026Z,33.80
2019-01-22T17:16:57.289Z,37.07
2019-01-22T17:19:25.513Z,37.37
2019-01-22T17:21:53.777Z,36.83
2019-01-22T17:24:22.002Z,32.57
2019-01-22T17:26:50.202Z,36.63
2019-01-22T17:29:18.494Z,35.97
2019-01-22T17:31:48.325Z,35.63
2019-01-22T17:34:16.550Z,34.37
2019-01-22T17:36:44.817Z,35.30
2019-01-22T17:39:13.290Z,39.73
2019-01-22T17:41:41.554Z,35.30
2019-01-22T17:44:11.082Z,36.93
2019-01-22T17:46:39.337Z,38.80
2019-01-22T17:49:07.562Z,35.53
2019-01-22T17:51:35.836Z,39.73
2019-01-22T17:54:04.205Z,36.07
2019-01-22T17:56:32.476Z,33.07
2019-01-22T17:59:00.778Z,34.40
2019-01-22T18:01:29.049Z,39.17
2019-01-22T18:03:57.270Z,33.63
2019-01-22T18:06:25.462Z,35.47
2019-01-22T18:08:53.758Z,34.73
2019-01-22T18:11:21.966Z,40.10
2019-01-22T18:13:50.258Z,36.13
2019-01-22T18:16:18.524Z,37.10
2019-01-22T18:18:47.056Z,42.50
2019-01-22T18:21:15.322Z,34.07
2019-01-22T18:23:44.513Z,37.10
2019-01-22T18:26:12.710Z,32.57
2019-01-22T18:28:41.788Z,40.80
2019-01-22T18:31:11.403Z,41.63
2019-01-22T18:33:39.694Z,31.10
2019-01-22T18:36:07.937Z,38.80
2019-01-22T18:38:36.178Z,35.10
2019-01-22T18:41:04.369Z,34.73
2019-01-22T18:43:32.594Z,37.00
2019-01-22T18:46:00.875Z,37.93
2019-01-22T18:48:29.141Z,36.90
2019-01-22T18:50:57.829Z,37.30
2019-01-22T18:53:26.379Z,42.30
2019-01-22T18:55:54.902Z,46.17
2019-01-22T18:58:23.725Z,44.33
2019-01-22T19:00:51.946Z,33.90
2019-01-22T19:03:20.151Z,38.00
2019-01-22T19:05:48.437Z,41.93
2019-01-22T19:08:16.629Z,36.40
2019-01-22T19:10:44.858Z,36.40
2019-01-22T19:13:13.125Z,39.47
2019-01-22T19:15:42.285Z,37.47
2019-01-22T19:18:12.565Z,37.30
2019-01-22T19:20:40.773Z,37.57
2019-01-22T19:23:08.966Z,42.60
2019-01-22T19:25:37.185Z,38.30
2019-01-22T19:28:05.385Z,38.50
2019-01-22T19:30:34.706Z,38.47
2019-01-22T19:33:03.170Z,47.10
2019-01-22T19:35:31.574Z,38.97
2019-01-22T19:37:59.773Z,38.43
2019-01-22T19:40:27.989Z,34.70
2019-01-22T19:42:57.524Z,36.37
2019-01-22T19:45:27.086Z,37.17
2019-01-22T19:47:55.355Z,35.67
2019-01-22T19:50:23.656Z,33.87
2019-01-22T19:52:51.917Z,32.60
2019-01-22T19:55:20.714Z,36.37
2019-01-22T19:57:48.987Z,33.00
2019-01-22T20:00:24.754Z,36.30
2019-01-22T20:02:53.094Z,36.27
2019-01-22T20:05:22.109Z,36.90
2019-01-22T20:07:50.634Z,34.60
2019-01-22T20:10:19.186Z,34.00
2019-01-22T20:12:48.258Z,32.03
2019-01-22T20:15:20.249Z,34.53
2019-01-22T20:17:48.518Z,34.47
2019-01-22T20:20:17.777Z,33.13
2019-01-22T20:22:46.054Z,30.40
2019-01-22T20:25:14.714Z,40.17
2019-01-22T20:27:47.979Z,35.63
2019-01-22T20:30:14.453Z,34.97
2019-01-22T20:32:42.654Z,37.03
2019-01-22T20:35:10.877Z,31.40
2019-01-22T20:37:39.146Z,37.17
2019-01-22T20:40:09.822Z,34.00
2019-01-22T20:42:38.085Z,29.03
2019-01-22T20:45:07.839Z,35.00
2019-01-22T20:47:36.038Z,35.80
2019-01-22T20:50:06.197Z,30.67
2019-01-22T20:52:34.398Z,28.20
2019-01-22T20:55:02.734Z,43.33
2019-01-22T20:57:31.034Z,33.80
2019-01-22T20:59:59.658Z,29.63
2019-01-22T21:02:28.180Z,34.07
2019-01-22T21:04:56.446Z,31.00
2019-01-22T21:07:24.742Z,31.00
2019-01-22T21:09:53.007Z,43.03
2019-01-22T21:12:21.304Z,36.27
2019-01-22T21:14:49.586Z,32.77
2019-01-22T21:17:17.876Z,35.00
2019-01-22T21:19:46.146Z,29.77
2019-01-22T21:22:14.445Z,34.07
2019-01-22T21:24:42.722Z,33.30
2019-01-22T21:27:11.020Z,33.57
2019-01-22T21:29:39.282Z,34.63
2019-01-22T21:32:07.577Z,32.37
2019-01-22T21:34:35.769Z,39.40
2019-01-22T21:37:03.988Z,36.47
2019-01-22T21:39:32.255Z,33.50
2019-01-22T21:42:00.622Z,34.67
2019-01-22T21:44:28.890Z,29.33
2019-01-22T21:46:57.115Z,33.03
2019-01-22T21:49:26.173Z,34.27
2019-01-22T21:51:54.461Z,34.40
2019-01-22T21:54:22.660Z,32.63
2019-01-22T21:56:50.958Z,35.07
2019-01-22T21:59:19.226Z,32.40
2019-01-22T22:01:47.517Z,32.10
2019-01-22T22:04:15.792Z,34.40
2019-01-22T22:06:44.075Z,33.33
2019-01-22T22:09:12.269Z,31.20
2019-01-22T22:11:40.754Z,34.57
2019-01-22T22:14:09.026Z,35.47
2019-01-22T22:16:37.330Z,33.10
2019-01-22T22:19:05.595Z,35.70
2019-01-22T22:21:34.045Z,33.70
2019-01-22T22:24:02.322Z,38.97
2019-01-22T22:26:30.843Z,37.33
2019-01-22T22:28:59.068Z,35.57
2019-01-22T22:31:27.505Z,32.87
2019-01-22T22:33:55.980Z,40.70
2019-01-22T22:36:24.254Z,35.10
2019-01-22T22:38:52.794Z,39.27
2019-01-22T22:41:21.224Z,32.33
2019-01-22T22:43:49.457Z,34.70
2019-01-22T22:46:17.979Z,32.77
2019-01-22T22:48:46.599Z,37.83
2019-01-22T22:51:15.434Z,34.50
2019-01-22T22:53:43.725Z,39.63
2019-01-22T22:56:12.849Z,35.03
2019-01-22T22:58:41.067Z,34.77
2019-01-22T23:01:11.062Z,37.73
2019-01-22T23:03:39.426Z,39.97
2019-01-22T23:06:08.260Z,33.17
2019-01-22T23:08:36.486Z,36.40
2019-01-22T23:11:04.758Z,34.83
2019-01-22T23:13:33.054Z,33.00
2019-01-22T23:16:01.587Z,34.50
2019-01-22T23:18:29.889Z,30.60
2019-01-22T23:20:58.082Z,33.43
2019-01-22T23:23:26.278Z,35.80
2019-01-22T23:25:54.974Z,37.87
2019-01-22T23:28:28.825Z,36.07
2019-01-22T23:30:53.106Z,32.50
2019-01-22T23:33:22.175Z,33.57
2019-01-22T23:35:50.466Z,33.53
2019-01-22T23:38:18.970Z,33.57
2019-01-22T23:40:47.267Z,32.27
2019-01-22T23:43:16.533Z,33.97
2019-01-22T23:45:45.061Z,34.03
2019-01-22T23:48:13.354Z,35.00
2019-01-22T23:50:41.662Z,32.13
2019-01-22T23:53:09.882Z,35.23
2019-01-22T23:55:38.150Z,31.17
2019-01-22T23:58:06.714Z,34.97
